Time;durP1;ratioP1;P1;durP2;ratioP2;P2;SDS_P1;SDS_P2;PMS_P1;PMS_P2;Temp;Humidity;BMP_temperature;BMP_pressure;BME280_temperature;BME280_humidity;BME280_pressure;Samples;Min_cycle;Max_cycle;Signal;HPM_P1;HPM_P2
2021/11/16 00:02:18;;;;;;;7.83;5.60;;;;;;;;;;4974765;28;20205;-89
2021/11/16 00:04:50;;;;;;;7.30;5.97;;;;;;;;;;4974862;28;20284;-89
2021/11/16 00:07:18;;;;;;;7.00;6.00;;;;;;;;;;4974674;28;20188;-89
2021/11/16 00:09:45;;;;;;;10.17;6.43;;;;;;;;;;4974717;28;20209;-90
2021/11/16 00:12:13;;;;;;;7.07;5.97;;;;;;;;;;4974523;28;20205;-89
2021/11/16 00:14:40;;;;;;;7.53;6.07;;;;;;;;;;4974470;28;20291;-89
2021/11/16 00:17:08;;;;;;;6.60;5.83;;;;;;;;;;4974662;28;20204;-90
2021/11/16 00:19:35;;;;;;;6.97;5.77;;;;;;;;;;4971413;28;22220;-91
2021/11/16 00:22:04;;;;;;;8.53;5.97;;;;;;;;;;4954561;28;20208;-86
2021/11/16 00:24:37;;;;;;;7.97;4.97;;;;;;;;;;4954818;29;20212;-87
2021/11/16 00:27:06;;;;;;;5.97;5.37;;;;;;;;;;4954728;29;20190;-87
2021/11/16 00:29:34;;;;;;;7.87;6.13;;;;;;;;;;4954484;28;20226;-87
2021/11/16 00:32:01;;;;;;;7.53;5.13;;;;;;;;;;4954829;28;20200;-87
2021/11/16 00:34:29;;;;;;;8.60;5.80;;;;;;;;;;4954494;29;20205;-87
2021/11/16 00:36:56;;;;;;;7.23;6.13;;;;;;;;;;4954583;29;20201;-87
2021/11/16 00:39:25;;;;;;;8.63;5.73;;;;;;;;;;4954409;29;20671;-87
2021/11/16 00:41:52;;;;;;;7.37;5.90;;;;;;;;;;4954718;29;20251;-87
2021/11/16 00:44:19;;;;;;;9.37;6.77;;;;;;;;;;4953658;29;20253;-87
2021/11/16 00:46:47;;;;;;;8.73;6.20;;;;;;;;;;4954405;28;20252;-87
2021/11/16 00:49:14;;;;;;;9.40;6.37;;;;;;;;;;4954515;28;20237;-86
2021/11/16 00:51:41;;;;;;;8.03;6.13;;;;;;;;;;4954237;29;20245;-87
2021/11/16 00:54:09;;;;;;;7.13;5.73;;;;;;;;;;4954270;28;20206;-86
2021/11/16 00:56:37;;;;;;;5.20;4.67;;;;;;;;;;4954031;29;20260;-86
2021/11/16 00:59:05;;;;;;;6.37;5.37;;;;;;;;;;4954441;29;20208;-87
2021/11/16 01:01:32;;;;;;;7.07;5.07;;;;;;;;;;4954392;29;20201;-87
2021/11/16 01:04:00;;;;;;;7.50;5.47;;;;;;;;;;4954177;29;20197;-86
2021/11/16 01:06:28;;;;;;;6.53;5.20;;;;;;;;;;4953988;29;20201;-87
2021/11/16 01:08:55;;;;;;;6.97;4.80;;;;;;;;;;4954183;29;20238;-86
2021/11/16 01:11:22;;;;;;;5.30;4.77;;;;;;;;;;4954415;29;20579;-86
2021/11/16 01:13:51;;;;;;;7.87;5.53;;;;;;;;;;4954024;29;20201;-86
2021/11/16 01:16:18;;;;;;;5.77;4.50;;;;;;;;;;4954131;29;20288;-86
2021/11/16 01:18:46;;;;;;;4.87;4.40;;;;;;;;;;4954012;29;20206;-85
2021/11/16 01:21:13;;;;;;;8.57;5.97;;;;;;;;;;4954026;29;20202;-86
2021/11/16 01:23:41;;;;;;;7.23;5.47;;;;;;;;;;4954033;29;20205;-87
2021/11/16 01:26:08;;;;;;;5.90;5.30;;;;;;;;;;4955209;28;20634;-87
2021/11/16 01:28:36;;;;;;;5.73;4.80;;;;;;;;;;4958508;29;20241;-87
2021/11/16 01:31:05;;;;;;;6.03;5.40;;;;;;;;;;4958356;28;20244;-87
2021/11/16 01:33:42;;;;;;;6.47;5.80;;;;;;;;;;4958493;28;20580;-87
2021/11/16 01:36:10;;;;;;;6.07;4.90;;;;;;;;;;4958425;28;20212;-87
2021/11/16 01:38:37;;;;;;;9.10;5.10;;;;;;;;;;4957708;29;20678;-87
2021/11/16 01:41:05;;;;;;;5.77;5.17;;;;;;;;;;4958087;29;20205;-87
2021/11/16 01:43:33;;;;;;;6.37;4.87;;;;;;;;;;4958117;29;20224;-87
2021/11/16 01:46:02;;;;;;;5.60;4.90;;;;;;;;;;4957833;28;20201;-87
2021/11/16 01:48:33;;;;;;;6.07;5.07;;;;;;;;;;4957575;29;20198;-88
2021/11/16 01:51:01;;;;;;;6.90;5.40;;;;;;;;;;4957670;29;20206;-87
2021/11/16 01:53:28;;;;;;;7.67;5.57;;;;;;;;;;4957690;29;20217;-87
2021/11/16 01:55:57;;;;;;;5.80;5.20;;;;;;;;;;4957736;29;20672;-87
2021/11/16 01:58:24;;;;;;;7.33;5.30;;;;;;;;;;4957811;28;20647;-87
2021/11/16 02:00:52;;;;;;;8.63;5.30;;;;;;;;;;4957330;29;20202;-86
2021/11/16 02:03:21;;;;;;;7.13;6.13;;;;;;;;;;4957383;29;20673;-86
2021/11/16 02:05:52;;;;;;;6.77;5.37;;;;;;;;;;4957099;29;20206;-86
2021/11/16 02:08:21;;;;;;;7.00;4.73;;;;;;;;;;4957266;29;20233;-87
2021/11/16 02:10:55;;;;;;;8.40;5.97;;;;;;;;;;4956847;28;20233;-86
2021/11/16 02:13:23;;;;;;;7.93;5.60;;;;;;;;;;4957350;29;20193;-86
2021/11/16 02:15:52;;;;;;;6.47;5.87;;;;;;;;;;4957188;28;20224;-86
2021/11/16 02:18:19;;;;;;;6.47;5.47;;;;;;;;;;4957123;29;20237;-87
2021/11/16 02:20:50;;;;;;;7.23;5.60;;;;;;;;;;4957600;29;20301;-87
2021/11/16 02:23:18;;;;;;;5.93;5.37;;;;;;;;;;4957570;29;20297;-88
2021/11/16 02:25:48;;;;;;;6.23;5.37;;;;;;;;;;4957670;29;20296;-87
2021/11/16 02:28:16;;;;;;;7.57;5.60;;;;;;;;;;4957708;28;20206;-88
2021/11/16 02:30:44;;;;;;;7.70;5.43;;;;;;;;;;4956873;29;20230;-87
2021/11/16 02:33:11;;;;;;;6.00;5.40;;;;;;;;;;4957102;29;20252;-88
2021/11/16 02:35:38;;;;;;;5.93;5.33;;;;;;;;;;4956578;29;20630;-86
2021/11/16 02:38:07;;;;;;;7.47;5.07;;;;;;;;;;4955223;28;20301;-86
2021/11/16 02:40:35;;;;;;;8.73;5.07;;;;;;;;;;4956183;29;20209;-86
2021/11/16 02:43:02;;;;;;;8.10;5.00;;;;;;;;;;4956824;29;20663;-87
2021/11/16 02:45:29;;;;;;;10.90;6.37;;;;;;;;;;4956859;29;20208;-88
2021/11/16 02:47:57;;;;;;;7.90;5.60;;;;;;;;;;4956772;29;20245;-88
2021/11/16 02:50:24;;;;;;;7.67;5.53;;;;;;;;;;4956860;29;20226;-88
2021/11/16 02:52:51;;;;;;;7.23;6.00;;;;;;;;;;4956872;29;20241;-88
2021/11/16 02:55:21;;;;;;;5.67;4.80;;;;;;;;;;4957127;29;20206;-88
2021/11/16 02:57:48;;;;;;;10.90;6.83;;;;;;;;;;4956452;29;20198;-87
2021/11/16 03:00:17;;;;;;;8.23;5.90;;;;;;;;;;4956778;28;20562;-88
2021/11/16 03:02:46;;;;;;;6.20;5.60;;;;;;;;;;4956420;29;20690;-88
2021/11/16 03:05:13;;;;;;;7.17;6.13;;;;;;;;;;4956571;29;20206;-87
2021/11/16 03:07:45;;;;;;;6.90;6.07;;;;;;;;;;4956120;29;20241;-87
2021/11/16 03:10:13;;;;;;;5.60;5.03;;;;;;;;;;4956035;29;20266;-87
2021/11/16 03:12:41;;;;;;;7.50;6.33;;;;;;;;;;4956106;29;20194;-87
2021/11/16 03:15:10;;;;;;;8.47;6.50;;;;;;;;;;4956031;29;20202;-86
2021/11/16 03:17:37;;;;;;;8.13;5.73;;;;;;;;;;4955710;29;20209;-87
2021/11/16 03:20:10;;;;;;;7.90;6.97;;;;;;;;;;4955845;29;20663;-86
2021/11/16 03:22:45;;;;;;;9.97;7.60;;;;;;;;;;4956135;29;20654;-87
2021/11/16 03:25:12;;;;;;;8.07;6.73;;;;;;;;;;4956116;28;20190;-86
2021/11/16 03:27:41;;;;;;;7.17;6.47;;;;;;;;;;4955689;28;20210;-87
2021/11/16 03:30:11;;;;;;;8.57;6.67;;;;;;;;;;4955822;28;20617;-87
2021/11/16 03:32:38;;;;;;;10.30;7.20;;;;;;;;;;4955965;29;20209;-86
2021/11/16 03:35:08;;;;;;;7.57;6.30;;;;;;;;;;4955436;28;20198;-86
2021/11/16 03:37:39;;;;;;;8.20;6.63;;;;;;;;;;4955447;29;20202;-87
2021/11/16 03:40:08;;;;;;;10.53;7.00;;;;;;;;;;4955731;29;20194;-87
2021/11/16 03:42:37;;;;;;;8.20;6.77;;;;;;;;;;4955975;28;20202;-87
2021/11/16 03:45:06;;;;;;;9.40;7.23;;;;;;;;;;4953343;28;20292;-87
2021/11/16 03:47:34;;;;;;;11.47;7.30;;;;;;;;;;4955862;29;20209;-87
2021/11/16 03:50:02;;;;;;;10.33;7.50;;;;;;;;;;4954890;28;20334;-87
2021/11/16 03:52:34;;;;;;;10.47;8.13;;;;;;;;;;4955454;29;20643;-87
2021/11/16 03:55:02;;;;;;;8.70;7.60;;;;;;;;;;4955452;29;20229;-86
2021/11/16 03:57:29;;;;;;;9.80;7.40;;;;;;;;;;4955506;29;20584;-88
2021/11/16 03:59:57;;;;;;;12.60;9.03;;;;;;;;;;4955708;29;20209;-89
2021/11/16 04:02:24;;;;;;;12.77;7.83;;;;;;;;;;4954862;28;20198;-91
2021/11/16 04:04:55;;;;;;;14.20;9.27;;;;;;;;;;4955708;28;20292;-87
2021/11/16 04:07:23;;;;;;;12.73;8.87;;;;;;;;;;4963230;28;20619;-86
2021/11/16 04:09:50;;;;;;;8.43;7.63;;;;;;;;;;4969772;28;20248;-87
2021/11/16 04:12:17;;;;;;;15.63;10.23;;;;;;;;;;4973769;28;20213;-86
2021/11/16 04:14:45;;;;;;;10.77;8.07;;;;;;;;;;4973641;28;20287;-87
2021/11/16 04:17:12;;;;;;;10.17;8.30;;;;;;;;;;4974184;28;20201;-87
2021/11/16 04:19:39;;;;;;;9.83;8.27;;;;;;;;;;4974156;28;20586;-86
2021/11/16 04:22:08;;;;;;;17.10;13.27;;;;;;;;;;4974020;28;20255;-86
2021/11/16 04:24:35;;;;;;;11.57;9.90;;;;;;;;;;4973687;28;20189;-86
2021/11/16 04:27:03;;;;;;;33.40;21.03;;;;;;;;;;4973659;28;20292;-86
2021/11/16 04:29:32;;;;;;;13.30;9.97;;;;;;;;;;4974002;28;20255;-86
2021/11/16 04:31:59;;;;;;;25.77;17.30;;;;;;;;;;4973452;28;20229;-87
2021/11/16 04:34:27;;;;;;;10.07;8.00;;;;;;;;;;4973502;28;20205;-86
2021/11/16 04:36:54;;;;;;;11.43;8.67;;;;;;;;;;4973488;28;20205;-87
2021/11/16 04:39:23;;;;;;;11.67;8.20;;;;;;;;;;4973776;28;20197;-87
2021/11/16 04:41:50;;;;;;;12.33;8.47;;;;;;;;;;4973256;28;20737;-84
2021/11/16 04:44:19;;;;;;;15.60;11.90;;;;;;;;;;4974457;28;20209;-87
2021/11/16 04:46:46;;;;;;;9.63;8.40;;;;;;;;;;4973902;28;20204;-88
2021/11/16 04:49:20;;;;;;;23.97;18.57;;;;;;;;;;4974100;28;20263;-87
2021/11/16 04:51:57;;;;;;;44.53;30.13;;;;;;;;;;4973938;28;20216;-87
2021/11/16 04:54:40;;;;;;;25.47;15.13;;;;;;;;;;4973655;28;20201;-88
2021/11/16 04:59:57;;;;;;;17.73;11.20;;;;;;;;;;4973811;28;20184;-87
2021/11/16 05:02:34;;;;;;;15.67;13.67;;;;;;;;;;4973581;28;20212;-87
2021/11/16 05:05:02;;;;;;;14.37;10.20;;;;;;;;;;4973998;28;20189;-86
2021/11/16 05:07:31;;;;;;;10.83;8.77;;;;;;;;;;4973113;28;20233;-87
2021/11/16 05:10:01;;;;;;;12.37;9.60;;;;;;;;;;4965091;28;20209;-88
2021/11/16 05:12:30;;;;;;;12.50;9.97;;;;;;;;;;4955005;29;20241;-89
2021/11/16 05:14:58;;;;;;;11.20;9.40;;;;;;;;;;4954367;28;20193;-88
2021/11/16 05:17:26;;;;;;;14.27;9.93;;;;;;;;;;4954542;29;20198;-88
2021/11/16 05:19:53;;;;;;;17.20;12.90;;;;;;;;;;4954136;28;20206;-89
2021/11/16 05:22:20;;;;;;;12.67;10.07;;;;;;;;;;4954436;28;20252;-88
2021/11/16 05:24:48;;;;;;;11.90;9.83;;;;;;;;;;4954329;28;20241;-88
2021/11/16 05:27:16;;;;;;;14.83;12.00;;;;;;;;;;4954378;29;20750;-89
2021/11/16 05:29:44;;;;;;;10.67;8.83;;;;;;;;;;4954022;29;20198;-87
2021/11/16 05:32:11;;;;;;;14.07;9.33;;;;;;;;;;4952977;28;20235;-86
2021/11/16 05:34:39;;;;;;;11.77;7.93;;;;;;;;;;4953119;29;20206;-86
2021/11/16 05:37:06;;;;;;;11.23;7.97;;;;;;;;;;4953847;29;20584;-86
2021/11/16 05:39:33;;;;;;;14.63;9.00;;;;;;;;;;4954028;29;20233;-86
2021/11/16 05:42:01;;;;;;;9.80;8.13;;;;;;;;;;4953630;29;20197;-86
2021/11/16 05:44:32;;;;;;;10.27;8.37;;;;;;;;;;4953614;29;20196;-86
2021/11/16 05:47:00;;;;;;;10.10;8.33;;;;;;;;;;4953743;29;20205;-86
2021/11/16 05:49:31;;;;;;;14.73;9.50;;;;;;;;;;4953542;28;20198;-86
2021/11/16 05:52:00;;;;;;;19.60;16.17;;;;;;;;;;4953570;29;20218;-86
2021/11/16 05:54:31;;;;;;;12.17;9.23;;;;;;;;;;4953470;29;20248;-86
2021/11/16 05:56:59;;;;;;;12.53;9.40;;;;;;;;;;4953500;29;20190;-86
2021/11/16 05:59:32;;;;;;;16.43;10.30;;;;;;;;;;4953567;29;20194;-86
2021/11/16 06:02:02;;;;;;;15.27;11.30;;;;;;;;;;4953473;29;20197;-86
2021/11/16 06:04:30;;;;;;;12.57;10.63;;;;;;;;;;4953864;28;20202;-86
2021/11/16 06:06:58;;;;;;;14.33;10.97;;;;;;;;;;4953439;29;20206;-86
2021/11/16 06:09:26;;;;;;;15.03;11.37;;;;;;;;;;4953838;29;20210;-86
2021/11/16 06:11:54;;;;;;;44.77;29.97;;;;;;;;;;4953497;28;20750;-86
2021/11/16 06:14:22;;;;;;;23.27;16.83;;;;;;;;;;4956998;29;20249;-86
2021/11/16 06:16:49;;;;;;;26.40;19.80;;;;;;;;;;4956917;29;20198;-86
2021/11/16 06:19:20;;;;;;;17.73;14.50;;;;;;;;;;4956750;29;20209;-86
2021/11/16 06:21:48;;;;;;;19.17;13.43;;;;;;;;;;4957139;29;20187;-86
2021/11/16 06:24:15;;;;;;;15.10;11.03;;;;;;;;;;4956821;29;20205;-86
2021/11/16 06:26:43;;;;;;;14.60;10.33;;;;;;;;;;4956852;29;20292;-85
2021/11/16 06:29:10;;;;;;;14.47;10.03;;;;;;;;;;4956703;28;20698;-86
2021/11/16 06:31:38;;;;;;;12.13;10.30;;;;;;;;;;4956813;28;20668;-86
2021/11/16 06:34:07;;;;;;;13.70;10.00;;;;;;;;;;4956453;29;20209;-87
2021/11/16 06:36:40;;;;;;;14.77;10.13;;;;;;;;;;4956658;29;20212;-86
2021/11/16 06:39:10;;;;;;;10.53;9.40;;;;;;;;;;4956791;29;20293;-86
2021/11/16 06:41:37;;;;;;;12.47;10.40;;;;;;;;;;4956549;29;20194;-86
2021/11/16 06:44:06;;;;;;;11.03;8.53;;;;;;;;;;4956517;29;20243;-86
2021/11/16 06:46:33;;;;;;;13.33;8.97;;;;;;;;;;4956362;29;20198;-86
2021/11/16 06:49:00;;;;;;;11.33;8.80;;;;;;;;;;4956532;29;20288;-86
2021/11/16 06:51:28;;;;;;;11.40;8.33;;;;;;;;;;4956175;29;20362;-85
2021/11/16 06:53:57;;;;;;;14.73;9.57;;;;;;;;;;4956099;29;20217;-86
2021/11/16 06:56:26;;;;;;;33.47;25.50;;;;;;;;;;4956415;29;20583;-86
2021/11/16 06:58:53;;;;;;;21.03;13.00;;;;;;;;;;4956168;29;20201;-86
2021/11/16 07:01:21;;;;;;;70.77;49.27;;;;;;;;;;4956013;29;20202;-86
2021/11/16 07:03:52;;;;;;;23.00;17.63;;;;;;;;;;4956021;28;20229;-86
2021/11/16 07:06:20;;;;;;;13.23;11.73;;;;;;;;;;4956209;29;20209;-86
2021/11/16 07:08:48;;;;;;;11.77;9.40;;;;;;;;;;4955989;28;20237;-86
2021/11/16 07:11:18;;;;;;;12.60;9.17;;;;;;;;;;4955865;29;20226;-86
2021/11/16 07:13:57;;;;;;;22.17;11.73;;;;;;;;;;4956003;28;20193;-86
2021/11/16 07:16:27;;;;;;;13.30;9.27;;;;;;;;;;4955757;29;20701;-86
2021/11/16 07:18:56;;;;;;;12.03;9.13;;;;;;;;;;4956334;29;20201;-86
2021/11/16 07:21:25;;;;;;;9.87;8.80;;;;;;;;;;4955820;29;20212;-86
2021/11/16 07:24:04;;;;;;;12.87;8.43;;;;;;;;;;4955002;28;20197;-86
2021/11/16 07:26:38;;;;;;;9.30;8.43;;;;;;;;;;4955765;29;20285;-86
2021/11/16 07:29:07;;;;;;;11.63;8.93;;;;;;;;;;4955585;29;20205;-86
2021/11/16 07:31:36;;;;;;;10.63;8.30;;;;;;;;;;4955212;29;20232;-86
2021/11/16 07:34:10;;;;;;;11.97;10.67;;;;;;;;;;4955375;29;20197;-86
2021/11/16 07:36:37;;;;;;;14.70;13.20;;;;;;;;;;4954351;29;20284;-86
2021/11/16 07:39:07;;;;;;;15.90;12.77;;;;;;;;;;4954928;29;20189;-86
2021/11/16 07:41:36;;;;;;;17.37;10.43;;;;;;;;;;4955306;29;20224;-86
2021/11/16 07:44:12;;;;;;;18.23;15.60;;;;;;;;;;4955789;28;20204;-86
2021/11/16 07:46:40;;;;;;;16.93;13.57;;;;;;;;;;4955348;29;20213;-86
2021/11/16 07:49:08;;;;;;;17.50;12.13;;;;;;;;;;4955352;28;20204;-86
2021/11/16 07:51:35;;;;;;;14.33;10.77;;;;;;;;;;4955246;29;20276;-86
2021/11/16 07:54:02;;;;;;;15.57;11.47;;;;;;;;;;4955466;29;20585;-86
2021/11/16 07:56:30;;;;;;;17.30;15.40;;;;;;;;;;4955039;28;20208;-86
2021/11/16 07:59:01;;;;;;;15.57;13.70;;;;;;;;;;4955060;29;20292;-86
2021/11/16 08:01:38;;;;;;;20.17;12.83;;;;;;;;;;4954923;29;20206;-86
2021/11/16 08:04:16;;;;;;;13.30;11.30;;;;;;;;;;4955001;29;20197;-85
2021/11/16 08:06:52;;;;;;;16.10;11.30;;;;;;;;;;4954898;29;20193;-86
2021/11/16 08:09:26;;;;;;;19.83;14.10;;;;;;;;;;4954908;29;20230;-86
2021/11/16 08:12:05;;;;;;;16.50;13.23;;;;;;;;;;4954633;29;20221;-86
2021/11/16 08:14:35;;;;;;;15.53;11.27;;;;;;;;;;4954842;29;20734;-86
2021/11/16 08:17:06;;;;;;;16.27;13.37;;;;;;;;;;4955019;28;20612;-86
2021/11/16 08:19:36;;;;;;;21.73;12.37;;;;;;;;;;4954814;28;20232;-86
2021/11/16 08:22:06;;;;;;;17.50;12.97;;;;;;;;;;4954618;29;20194;-87
2021/11/16 08:24:36;;;;;;;25.00;17.27;;;;;;;;;;4954799;29;20646;-86
2021/11/16 08:27:09;;;;;;;20.30;14.43;;;;;;;;;;4954493;29;20213;-86
2021/11/16 08:29:42;;;;;;;36.30;23.37;;;;;;;;;;4954677;29;20190;-86
2021/11/16 08:32:14;;;;;;;18.60;12.40;;;;;;;;;;4954731;28;20604;-86
2021/11/16 08:34:43;;;;;;;11.57;9.33;;;;;;;;;;4954724;28;20244;-86
2021/11/16 08:37:12;;;;;;;14.17;9.97;;;;;;;;;;4954286;29;20256;-86
2021/11/16 08:39:41;;;;;;;10.43;8.80;;;;;;;;;;4954579;29;20212;-85
2021/11/16 08:42:17;;;;;;;14.93;8.67;;;;;;;;;;4954407;29;20201;-86
2021/11/16 08:44:48;;;;;;;19.73;14.37;;;;;;;;;;4954491;29;20200;-86
2021/11/16 08:47:17;;;;;;;12.73;9.33;;;;;;;;;;4954588;29;20598;-85
2021/11/16 08:49:46;;;;;;;18.17;12.73;;;;;;;;;;4954711;29;20579;-85
2021/11/16 08:52:17;;;;;;;17.10;11.27;;;;;;;;;;4954488;29;20222;-85
2021/11/16 08:54:55;;;;;;;16.23;12.93;;;;;;;;;;4954189;29;20743;-86
2021/11/16 08:57:23;;;;;;;15.00;11.47;;;;;;;;;;4954285;29;20202;-86
2021/11/16 08:59:53;;;;;;;17.87;12.83;;;;;;;;;;4954175;29;20245;-86
2021/11/16 09:02:22;;;;;;;9.30;7.83;;;;;;;;;;4954328;28;20398;-86
2021/11/16 09:04:50;;;;;;;12.90;9.47;;;;;;;;;;4954430;28;20321;-86
2021/11/16 09:07:20;;;;;;;34.23;30.60;;;;;;;;;;4954092;29;20193;-85
2021/11/16 09:10:00;;;;;;;25.13;22.47;;;;;;;;;;4954202;29;20192;-86
2021/11/16 09:12:43;;;;;;;22.00;16.67;;;;;;;;;;4953917;29;20210;-86
2021/11/16 09:15:15;;;;;;;16.40;12.57;;;;;;;;;;4953919;29;20198;-86
2021/11/16 09:17:43;;;;;;;20.60;13.97;;;;;;;;;;4954103;29;20189;-86
2021/11/16 09:20:15;;;;;;;26.87;17.43;;;;;;;;;;4954223;29;20213;-86
2021/11/16 09:22:43;;;;;;;14.70;10.20;;;;;;;;;;4953977;29;20205;-86
2021/11/16 09:25:24;;;;;;;13.20;9.47;;;;;;;;;;4953855;29;20213;-86
2021/11/16 09:27:58;;;;;;;15.73;12.07;;;;;;;;;;4954288;28;20198;-86
2021/11/16 09:30:34;;;;;;;19.23;10.10;;;;;;;;;;4954161;29;20592;-87
2021/11/16 09:33:04;;;;;;;12.43;11.10;;;;;;;;;;4954058;29;20213;-86
2021/11/16 09:35:56;;;;;;;18.20;13.13;;;;;;;;;;4954109;29;20280;-86
2021/11/16 09:38:46;;;;;;;11.87;9.83;;;;;;;;;;4954070;28;20190;-86
2021/11/16 09:41:16;;;;;;;8.17;7.37;;;;;;;;;;4954249;29;20190;-87
2021/11/16 09:43:44;;;;;;;10.30;9.23;;;;;;;;;;4953949;29;20186;-87
2021/11/16 09:46:17;;;;;;;11.67;8.33;;;;;;;;;;4954069;28;20228;-87
2021/11/16 09:48:45;;;;;;;10.67;7.23;;;;;;;;;;4956872;29;20281;-86
2021/11/16 09:51:17;;;;;;;11.63;7.13;;;;;;;;;;4957207;29;20212;-86
2021/11/16 09:53:45;;;;;;;11.07;8.93;;;;;;;;;;4957652;29;20608;-86
2021/11/16 09:56:20;;;;;;;10.43;8.80;;;;;;;;;;4957612;28;20317;-86
2021/11/16 09:58:47;;;;;;;19.23;10.50;;;;;;;;;;4957363;29;20201;-86
2021/11/16 10:01:26;;;;;;;17.20;12.63;;;;;;;;;;4957287;29;20233;-89
2021/11/16 10:04:12;;;;;;;14.60;11.37;;;;;;;;;;4957366;29;20189;-87
2021/11/16 10:06:40;;;;;;;10.23;7.47;;;;;;;;;;4957179;29;20285;-87
2021/11/16 10:09:09;;;;;;;14.03;7.77;;;;;;;;;;4957097;29;20233;-86
2021/11/16 10:11:41;;;;;;;8.03;6.70;;;;;;;;;;4957002;29;20697;-87
2021/11/16 10:14:10;;;;;;;10.43;6.87;;;;;;;;;;4957188;29;20249;-86
2021/11/16 10:16:39;;;;;;;9.27;6.33;;;;;;;;;;4957087;29;20202;-87
2021/11/16 10:19:06;;;;;;;9.27;7.10;;;;;;;;;;4956848;29;20197;-87
2021/11/16 10:21:35;;;;;;;11.47;6.57;;;;;;;;;;4957105;29;20206;-86
2021/11/16 10:24:03;;;;;;;9.70;7.70;;;;;;;;;;4957223;29;20245;-86
2021/11/16 10:26:34;;;;;;;9.60;7.57;;;;;;;;;;4956868;29;20330;-87
2021/11/16 10:29:02;;;;;;;14.33;7.37;;;;;;;;;;4957115;29;20232;-87
2021/11/16 10:31:31;;;;;;;9.77;7.20;;;;;;;;;;4956731;29;20260;-87
2021/11/16 10:34:01;;;;;;;9.50;7.63;;;;;;;;;;4956689;29;20224;-86
2021/11/16 10:36:29;;;;;;;9.03;6.40;;;;;;;;;;4956802;29;20230;-87
2021/11/16 10:38:59;;;;;;;8.43;6.07;;;;;;;;;;4956987;28;20597;-87
2021/11/16 10:41:28;;;;;;;7.93;6.37;;;;;;;;;;4956575;29;20264;-87
2021/11/16 10:43:57;;;;;;;18.30;11.17;;;;;;;;;;4956464;29;20201;-85
2021/11/16 10:46:26;;;;;;;11.20;8.17;;;;;;;;;;4956332;29;20697;-86
2021/11/16 10:48:56;;;;;;;8.03;6.20;;;;;;;;;;4956542;28;20237;-86
2021/11/16 10:51:28;;;;;;;13.90;8.93;;;;;;;;;;4956763;28;20560;-86
2021/11/16 10:53:57;;;;;;;18.37;10.73;;;;;;;;;;4956393;29;20221;-86
2021/11/16 10:56:25;;;;;;;9.67;4.83;;;;;;;;;;4956501;29;20198;-86
2021/11/16 10:58:53;;;;;;;9.23;4.97;;;;;;;;;;4955179;28;20201;-86
2021/11/16 11:01:22;;;;;;;11.30;5.67;;;;;;;;;;4956405;29;20240;-86
2021/11/16 11:03:53;;;;;;;8.80;5.33;;;;;;;;;;4956161;29;20205;-86
2021/11/16 11:06:23;;;;;;;9.10;5.10;;;;;;;;;;4956239;29;20198;-86
2021/11/16 11:08:54;;;;;;;10.80;5.43;;;;;;;;;;4956257;29;20261;-86
2021/11/16 11:11:24;;;;;;;7.67;5.17;;;;;;;;;;4956073;29;20295;-86
2021/11/16 11:13:57;;;;;;;7.00;5.53;;;;;;;;;;4955882;29;20699;-87
2021/11/16 11:16:25;;;;;;;12.20;6.57;;;;;;;;;;4956034;29;20206;-86
2021/11/16 11:18:54;;;;;;;10.93;6.93;;;;;;;;;;4955915;29;20201;-86
2021/11/16 11:21:39;;;;;;;9.63;5.23;;;;;;;;;;4955666;29;20209;-86
2021/11/16 11:24:17;;;;;;;9.00;6.67;;;;;;;;;;4955855;29;20198;-87
2021/11/16 11:26:48;;;;;;;6.60;5.37;;;;;;;;;;4956193;28;20591;-87
2021/11/16 11:29:28;;;;;;;15.10;9.93;;;;;;;;;;4955733;29;20218;-86
2021/11/16 11:32:03;;;;;;;12.43;6.80;;;;;;;;;;4955757;28;20249;-87
2021/11/16 11:34:39;;;;;;;10.93;7.77;;;;;;;;;;4955999;29;20670;-86
2021/11/16 11:37:09;;;;;;;11.23;5.30;;;;;;;;;;4955616;29;20190;-86
2021/11/16 11:39:38;;;;;;;11.33;7.20;;;;;;;;;;4956082;29;20212;-87
2021/11/16 11:42:11;;;;;;;10.10;8.47;;;;;;;;;;4955441;29;20655;-87
2021/11/16 11:44:42;;;;;;;9.90;7.23;;;;;;;;;;4955685;29;20198;-86
2021/11/16 11:47:11;;;;;;;11.03;8.70;;;;;;;;;;4955748;29;20216;-87
2021/11/16 11:49:41;;;;;;;11.40;9.73;;;;;;;;;;4955267;29;20253;-86
2021/11/16 11:52:08;;;;;;;7.23;5.80;;;;;;;;;;4955439;28;20588;-87
2021/11/16 11:54:37;;;;;;;6.50;5.03;;;;;;;;;;4955964;29;20264;-86
2021/11/16 11:57:05;;;;;;;7.47;5.60;;;;;;;;;;4955213;29;20253;-86
2021/11/16 11:59:34;;;;;;;7.67;5.80;;;;;;;;;;4955592;29;20743;-86
2021/11/16 12:02:01;;;;;;;10.07;6.73;;;;;;;;;;4955053;29;20281;-87
2021/11/16 12:04:29;;;;;;;9.50;6.13;;;;;;;;;;4954957;29;20204;-86
2021/11/16 12:06:59;;;;;;;11.37;6.23;;;;;;;;;;4954951;29;20209;-86
2021/11/16 12:09:26;;;;;;;7.93;7.13;;;;;;;;;;4955280;28;20190;-86
2021/11/16 12:11:56;;;;;;;9.53;6.60;;;;;;;;;;4954862;29;20206;-86
2021/11/16 12:14:30;;;;;;;9.90;6.50;;;;;;;;;;4954792;29;20302;-86
2021/11/16 12:17:01;;;;;;;9.93;6.47;;;;;;;;;;4955130;29;20283;-86
2021/11/16 12:19:48;;;;;;;10.90;9.80;;;;;;;;;;4954770;29;20194;-86
2021/11/16 12:22:23;;;;;;;9.80;7.73;;;;;;;;;;4954828;29;20202;-86
2021/11/16 12:24:54;;;;;;;14.03;8.43;;;;;;;;;;4954665;28;20241;-86
2021/11/16 12:27:30;;;;;;;10.33;9.23;;;;;;;;;;4954840;29;20272;-86
2021/11/16 12:29:57;;;;;;;17.97;10.83;;;;;;;;;;4954987;29;20197;-86
2021/11/16 12:32:26;;;;;;;16.87;12.30;;;;;;;;;;4954764;29;20746;-86
2021/11/16 12:34:57;;;;;;;14.97;10.00;;;;;;;;;;4954637;29;20208;-86
2021/11/16 12:37:42;;;;;;;9.13;7.43;;;;;;;;;;4954578;28;20186;-86
2021/11/16 12:40:13;;;;;;;17.63;11.60;;;;;;;;;;4955087;28;20186;-86
2021/11/16 12:43:12;;;;;;;29.13;17.27;;;;;;;;;;4954521;29;20182;-87
2021/11/16 12:45:42;;;;;;;25.43;17.90;;;;;;;;;;4954473;29;20281;-86
2021/11/16 12:48:10;;;;;;;30.73;21.53;;;;;;;;;;4954852;29;20202;-86
2021/11/16 12:50:38;;;;;;;21.43;16.00;;;;;;;;;;4954115;29;20197;-86
2021/11/16 12:53:05;;;;;;;12.13;9.70;;;;;;;;;;4954076;29;20222;-86
2021/11/16 12:55:36;;;;;;;21.40;15.23;;;;;;;;;;4954301;29;20643;-86
2021/11/16 12:58:25;;;;;;;15.30;11.67;;;;;;;;;;4954218;29;20236;-85
2021/11/16 13:00:53;;;;;;;7.70;6.53;;;;;;;;;;4954092;29;20190;-87
2021/11/16 13:03:55;;;;;;;12.03;8.17;;;;;;;;;;4954704;28;20198;-86
2021/11/16 13:06:22;;;;;;;7.87;5.57;;;;;;;;;;4954384;29;20196;-86
2021/11/16 13:08:50;;;;;;;14.13;5.90;;;;;;;;;;4953982;29;20241;-86
2021/11/16 13:11:43;;;;;;;9.53;6.30;;;;;;;;;;4954304;28;20667;-86
2021/11/16 13:14:14;;;;;;;9.73;6.10;;;;;;;;;;4954222;29;20229;-86
2021/11/16 13:16:43;;;;;;;7.03;5.20;;;;;;;;;;4954368;29;20206;-86
2021/11/16 13:19:10;;;;;;;10.77;6.37;;;;;;;;;;4954401;29;20201;-86
2021/11/16 13:21:40;;;;;;;11.43;7.23;;;;;;;;;;4954215;28;20197;-87
2021/11/16 13:24:11;;;;;;;12.37;6.40;;;;;;;;;;4958343;29;20190;-86
2021/11/16 13:26:47;;;;;;;9.87;7.23;;;;;;;;;;4957999;29;20260;-86
2021/11/16 13:29:31;;;;;;;8.20;7.23;;;;;;;;;;4958121;29;20193;-86
2021/11/16 13:32:02;;;;;;;11.90;8.83;;;;;;;;;;4957999;29;20190;-86
2021/11/16 13:34:32;;;;;;;9.00;7.07;;;;;;;;;;4957861;29;20688;-86
2021/11/16 13:37:11;;;;;;;12.30;9.73;;;;;;;;;;4957685;29;20198;-86
2021/11/16 13:39:39;;;;;;;8.43;7.40;;;;;;;;;;4957716;29;20205;-86
2021/11/16 13:42:10;;;;;;;10.33;8.00;;;;;;;;;;4957589;29;20202;-86
2021/11/16 13:44:41;;;;;;;14.53;7.23;;;;;;;;;;4957986;28;20182;-86
2021/11/16 13:47:12;;;;;;;36.47;30.23;;;;;;;;;;4957573;29;20236;-86
2021/11/16 13:49:42;;;;;;;14.47;12.70;;;;;;;;;;4957356;29;20198;-86
2021/11/16 13:52:16;;;;;;;20.90;17.53;;;;;;;;;;4957455;29;20288;-86
2021/11/16 13:54:45;;;;;;;13.17;11.60;;;;;;;;;;4957899;29;20610;-86
2021/11/16 13:57:14;;;;;;;16.07;11.77;;;;;;;;;;4957178;29;20197;-86
2021/11/16 13:59:44;;;;;;;20.30;17.93;;;;;;;;;;4957811;29;20276;-86
2021/11/16 14:02:13;;;;;;;33.50;25.30;;;;;;;;;;4956977;29;20285;-86
2021/11/16 14:04:41;;;;;;;21.20;17.20;;;;;;;;;;4957224;29;20204;-86
2021/11/16 14:07:13;;;;;;;16.27;11.17;;;;;;;;;;4956844;29;20261;-86
2021/11/16 14:09:40;;;;;;;14.23;10.60;;;;;;;;;;4956900;29;20201;-86
2021/11/16 14:12:09;;;;;;;13.10;11.63;;;;;;;;;;4957358;29;20280;-86
2021/11/16 14:14:37;;;;;;;11.07;9.93;;;;;;;;;;4957563;29;20280;-86
2021/11/16 14:17:12;;;;;;;11.83;8.97;;;;;;;;;;4956862;29;20721;-86
2021/11/16 14:19:51;;;;;;;9.00;8.17;;;;;;;;;;4957173;29;20565;-86
2021/11/16 14:22:31;;;;;;;14.57;9.47;;;;;;;;;;4956864;29;20209;-86
2021/11/16 14:24:59;;;;;;;13.67;10.73;;;;;;;;;;4956761;29;20663;-85
2021/11/16 14:27:26;;;;;;;51.90;32.80;;;;;;;;;;4957184;29;20209;-86
2021/11/16 14:30:05;;;;;;;28.80;20.20;;;;;;;;;;4956733;29;20229;-85
2021/11/16 14:32:36;;;;;;;40.17;24.67;;;;;;;;;;4957015;29;20206;-86
2021/11/16 14:35:14;;;;;;;70.87;42.97;;;;;;;;;;4956264;29;20257;-86
2021/11/16 14:37:50;;;;;;;45.47;31.77;;;;;;;;;;4956512;29;20249;-86
2021/11/16 14:40:19;;;;;;;20.97;15.00;;;;;;;;;;4956555;29;20225;-86
2021/11/16 14:42:46;;;;;;;14.73;13.07;;;;;;;;;;4956475;29;20289;-86
2021/11/16 14:45:14;;;;;;;18.90;16.87;;;;;;;;;;4956155;29;20276;-86
2021/11/16 14:47:45;;;;;;;15.03;13.53;;;;;;;;;;4956425;28;20208;-86
2021/11/16 14:50:16;;;;;;;12.43;10.33;;;;;;;;;;4956649;28;20233;-85
2021/11/16 14:52:44;;;;;;;11.87;10.47;;;;;;;;;;4956144;28;20285;-86